Time;durP1;ratioP1;P1;durP2;ratioP2;P2;SDS_P1;SDS_P2;PMS_P1;PMS_P2;Temp;Humidity;BMP_temperature;BMP_pressure;BME280_temperature;BME280_humidity;BME280_pressure;Samples;Min_cycle;Max_cycle;Signal;HPM_P1;HPM_P2
2022/07/18 00:01:52;;;;;;;6.28;2.55;;;16.80;99.90;;;;;;5034124;28;20067;-74
2022/07/18 00:04:18;;;;;;;5.85;2.95;;;16.70;99.80;;;;;;5031099;28;20072;-73
2022/07/18 00:06:43;;;;;;;8.20;3.03;;;16.60;99.60;;;;;;5030636;28;20069;-67
2022/07/18 00:09:09;;;;;;;9.32;3.53;;;16.60;99.90;;;;;;5030805;28;20025;-71
2022/07/18 00:11:35;;;;;;;6.32;3.35;;;16.50;99.90;;;;;;5034584;28;20049;-74
2022/07/18 00:14:01;;;;;;;8.35;2.97;;;16.50;99.90;;;;;;5030626;28;20017;-68
2022/07/18 00:16:27;;;;;;;8.20;3.08;;;16.50;99.90;;;;;;5030849;28;20056;-70
2022/07/18 00:18:54;;;;;;;8.48;3.15;;;16.40;99.90;;;;;;5030887;28;20097;-75
2022/07/18 00:21:20;;;;;;;8.52;3.55;;;16.40;99.90;;;;;;5030747;28;20411;-63
2022/07/18 00:23:46;;;;;;;6.93;3.08;;;16.40;99.90;;;;;;5030926;28;20053;-74
2022/07/18 00:26:12;;;;;;;9.10;3.63;;;16.40;99.90;;;;;;5030426;28;20065;-75
2022/07/18 00:28:38;;;;;;;12.20;3.88;;;16.30;99.90;;;;;;5030826;28;20013;-71
2022/07/18 00:31:04;;;;;;;7.50;2.88;;;16.20;99.90;;;;;;5030495;28;20387;-67
2022/07/18 00:33:30;;;;;;;6.22;3.17;;;16.20;99.90;;;;;;5030821;28;20029;-72
2022/07/18 00:35:56;;;;;;;6.88;2.83;;;16.20;99.90;;;;;;5030545;28;20386;-75
2022/07/18 00:38:21;;;;;;;4.90;2.92;;;16.10;99.90;;;;;;5030786;28;20017;-70
2022/07/18 00:40:47;;;;;;;5.72;3.53;;;16.20;99.90;;;;;;5031119;28;20746;-68
2022/07/18 00:43:14;;;;;;;8.25;3.30;;;16.10;99.90;;;;;;5030757;28;20033;-74
2022/07/18 00:45:45;;;;;;;6.72;2.88;;;16.00;99.90;;;;;;5030587;28;20107;-75
2022/07/18 00:48:12;;;;;;;10.25;3.38;;;16.10;99.90;;;;;;5030711;28;20025;-65
2022/07/18 00:50:37;;;;;;;7.68;3.03;;;16.00;99.90;;;;;;5030446;28;20491;-73
2022/07/18 00:53:05;;;;;;;5.93;2.60;;;15.90;99.90;;;;;;5030311;28;20037;-70
2022/07/18 00:55:32;;;;;;;5.82;2.90;;;15.90;99.90;;;;;;5031608;28;20389;-66
2022/07/18 00:57:58;;;;;;;7.85;2.90;;;15.90;99.90;;;;;;5030862;28;20021;-75
2022/07/18 01:03:09;;;;;;;7.00;2.95;;;15.90;99.90;;;;;;5033196;28;20053;-65
2022/07/18 01:05:35;;;;;;;8.07;3.38;;;15.90;99.90;;;;;;5030486;28;20037;-75
2022/07/18 01:08:02;;;;;;;3.78;2.65;;;15.90;99.90;;;;;;5030553;28;20030;-74
2022/07/18 01:10:28;;;;;;;5.75;2.47;;;15.90;99.90;;;;;;5031558;28;20025;-74
2022/07/18 01:12:54;;;;;;;5.95;2.65;;;15.80;99.90;;;;;;5030254;28;20036;-68
2022/07/18 01:15:20;;;;;;;5.85;3.13;;;15.80;99.90;;;;;;5030457;28;20030;-69
2022/07/18 01:17:46;;;;;;;5.40;3.03;;;15.70;99.90;;;;;;5030424;28;20033;-75
2022/07/18 01:20:12;;;;;;;9.38;3.20;;;15.70;99.90;;;;;;5034157;28;20938;-74
2022/07/18 01:22:41;;;;;;;5.68;2.58;;;15.70;99.90;;;;;;5034112;28;20048;-76
2022/07/18 01:25:07;;;;;;;3.90;2.67;;;15.60;99.90;;;;;;5033895;28;20076;-68
2022/07/18 01:27:33;;;;;;;8.15;2.95;;;15.60;99.90;;;;;;5033487;28;20042;-70
2022/07/18 01:29:58;;;;;;;3.67;2.78;;;15.60;99.90;;;;;;5034054;28;20036;-71
2022/07/18 01:32:26;;;;;;;3.03;2.17;;;15.50;99.90;;;;;;5033949;28;20041;-72
2022/07/18 01:34:51;;;;;;;4.97;3.17;;;15.60;99.90;;;;;;5033783;28;20013;-76
2022/07/18 01:37:18;;;;;;;4.38;2.53;;;15.60;99.90;;;;;;5033573;28;20437;-76
2022/07/18 01:39:45;;;;;;;5.47;2.95;;;15.60;99.90;;;;;;5033792;28;20026;-67
2022/07/18 01:42:12;;;;;;;7.80;3.20;;;15.50;99.90;;;;;;5033686;28;20475;-75
2022/07/18 01:44:38;;;;;;;6.53;3.08;;;15.50;99.90;;;;;;5033277;28;20024;-69
2022/07/18 01:47:07;;;;;;;4.32;2.83;;;15.50;99.90;;;;;;5033122;28;20037;-66
2022/07/18 01:49:34;;;;;;;5.40;2.55;;;15.40;99.90;;;;;;5033920;28;20018;-66
2022/07/18 01:52:01;;;;;;;6.50;2.95;;;15.40;99.90;;;;;;5033409;28;20126;-74
2022/07/18 01:54:29;;;;;;;7.32;2.70;;;15.30;99.90;;;;;;5033680;28;20045;-75
2022/07/18 01:56:56;;;;;;;6.07;2.05;;;15.30;99.90;;;;;;5033212;28;20025;-73
2022/07/18 01:59:23;;;;;;;6.60;2.97;;;15.30;99.90;;;;;;5033019;28;20018;-76
2022/07/18 02:01:49;;;;;;;6.38;2.80;;;15.30;99.90;;;;;;5032624;28;20463;-69
2022/07/18 02:04:15;;;;;;;6.55;3.45;;;15.30;99.90;;;;;;5032996;28;20103;-75
2022/07/18 02:06:41;;;;;;;4.15;2.85;;;15.30;99.90;;;;;;5033127;28;20029;-75
2022/07/18 02:09:09;;;;;;;5.07;2.70;;;15.30;99.90;;;;;;5033091;28;21265;-70
2022/07/18 02:11:35;;;;;;;8.18;3.20;;;15.20;99.90;;;;;;5033692;28;20061;-73
2022/07/18 02:14:02;;;;;;;5.97;2.45;;;15.20;99.90;;;;;;5032604;28;20063;-75
2022/07/18 02:16:28;;;;;;;5.90;3.03;;;15.10;99.90;;;;;;5032959;28;20030;-69
2022/07/18 02:18:55;;;;;;;6.40;3.10;;;15.20;99.90;;;;;;5032769;28;20021;-65
2022/07/18 02:21:21;;;;;;;5.32;2.45;;;15.10;99.90;;;;;;5033066;28;20032;-75
2022/07/18 02:23:47;;;;;;;4.85;2.67;;;15.10;99.90;;;;;;5032690;28;20380;-65
2022/07/18 02:26:12;;;;;;;3.03;2.28;;;14.90;99.90;;;;;;5035924;28;20061;-75
2022/07/18 02:28:38;;;;;;;4.22;2.58;;;14.90;99.90;;;;;;5032511;28;20372;-71
2022/07/18 02:31:06;;;;;;;6.85;3.47;;;14.80;99.90;;;;;;5031639;28;20108;-65
2022/07/18 02:33:32;;;;;;;10.43;2.75;;;14.80;99.90;;;;;;5032733;28;20491;-76
2022/07/18 02:35:59;;;;;;;3.92;2.40;;;14.70;99.90;;;;;;5032492;28;20033;-68
2022/07/18 02:38:24;;;;;;;6.13;3.20;;;14.70;99.90;;;;;;5032281;28;20021;-64
2022/07/18 02:40:50;;;;;;;6.72;3.10;;;14.50;99.90;;;;;;5032557;28;20035;-71
2022/07/18 02:43:16;;;;;;;6.35;2.40;;;14.30;99.90;;;;;;5032258;28;20022;-75
2022/07/18 02:45:42;;;;;;;8.00;3.00;;;14.40;99.90;;;;;;5032349;28;20489;-63
2022/07/18 02:48:08;;;;;;;6.80;3.05;;;14.40;99.90;;;;;;5031051;28;20036;-76
2022/07/18 02:50:34;;;;;;;12.18;3.55;;;14.50;99.90;;;;;;5032499;28;20070;-73
2022/07/18 02:53:00;;;;;;;6.13;3.35;;;14.50;99.90;;;;;;5032137;28;20138;-75
2022/07/18 02:55:26;;;;;;;10.75;2.97;;;14.40;99.90;;;;;;5032161;28;20318;-76
2022/07/18 02:57:52;;;;;;;5.75;2.75;;;14.50;99.90;;;;;;5031865;28;20821;-74
2022/07/18 03:00:18;;;;;;;7.03;3.38;;;14.40;99.90;;;;;;5031873;28;20065;-76
2022/07/18 03:02:45;;;;;;;6.30;2.80;;;14.40;99.90;;;;;;5031684;28;20049;-75
2022/07/18 03:05:11;;;;;;;5.82;3.17;;;14.40;99.90;;;;;;5032130;28;20022;-75
2022/07/18 03:07:38;;;;;;;7.93;3.03;;;14.40;99.90;;;;;;5031908;28;20030;-75
2022/07/18 03:10:05;;;;;;;7.50;3.42;;;14.30;99.90;;;;;;5037270;28;20033;-69
2022/07/18 03:12:31;;;;;;;7.13;3.13;;;14.20;99.90;;;;;;5031900;28;20018;-76
2022/07/18 03:14:57;;;;;;;5.28;2.92;;;14.30;99.90;;;;;;5031538;28;20495;-65
2022/07/18 03:17:23;;;;;;;9.05;4.20;;;14.30;99.90;;;;;;5032339;28;20021;-76
2022/07/18 03:19:49;;;;;;;6.10;3.15;;;14.30;99.90;;;;;;5032441;28;20084;-71
2022/07/18 03:22:15;;;;;;;6.13;3.20;;;14.20;99.90;;;;;;5031906;28;20030;-75
2022/07/18 03:24:41;;;;;;;9.52;3.85;;;14.30;99.90;;;;;;5031813;28;20052;-75
2022/07/18 03:27:06;;;;;;;10.57;3.45;;;14.40;99.90;;;;;;5031320;28;20465;-72
2022/07/18 03:29:32;;;;;;;5.45;3.03;;;14.50;99.90;;;;;;5031297;28;20021;-75
2022/07/18 03:31:58;;;;;;;11.07;2.80;;;14.60;99.90;;;;;;5031784;28;20044;-74
2022/07/18 03:34:24;;;;;;;11.65;3.53;;;14.60;99.90;;;;;;5032011;28;20065;-67
2022/07/18 03:36:49;;;;;;;8.55;3.72;;;14.50;99.90;;;;;;5031498;28;20379;-75
2022/07/18 03:39:15;;;;;;;6.68;3.22;;;14.60;99.90;;;;;;5031320;28;20029;-76
2022/07/18 03:41:41;;;;;;;6.25;3.75;;;14.70;99.90;;;;;;5031186;28;20017;-76
2022/07/18 03:44:07;;;;;;;7.32;3.70;;;14.60;99.90;;;;;;5030849;28;20460;-73
2022/07/18 03:46:33;;;;;;;8.30;3.90;;;14.60;99.90;;;;;;5031288;28;20384;-75
2022/07/18 03:48:59;;;;;;;9.57;4.43;;;14.50;99.90;;;;;;5031521;28;20057;-69
2022/07/18 03:51:25;;;;;;;6.47;3.92;;;14.90;99.90;;;;;;5031205;28;20032;-75
2022/07/18 03:53:51;;;;;;;8.30;4.20;;;16.10;99.90;;;;;;5035014;28;20391;-75
2022/07/18 03:56:17;;;;;;;13.05;4.63;;;17.10;99.90;;;;;;5030912;28;20108;-63
2022/07/18 03:58:43;;;;;;;11.95;4.15;;;18.30;99.70;;;;;;5030856;28;20105;-77
2022/07/18 04:01:09;;;;;;;8.38;4.22;;;18.90;95.70;;;;;;5030697;28;20021;-68
2022/07/18 04:03:35;;;;;;;9.23;3.97;;;19.90;91.70;;;;;;5030589;28;20419;-74
2022/07/18 04:06:01;;;;;;;7.05;4.13;;;20.70;88.70;;;;;;5030963;28;20021;-76
2022/07/18 04:08:27;;;;;;;7.32;4.57;;;21.40;83.40;;;;;;5030701;28;20037;-64
2022/07/18 04:10:53;;;;;;;12.52;4.65;;;21.90;79.70;;;;;;5033982;28;20018;-76
2022/07/18 04:13:19;;;;;;;15.35;4.30;;;21.90;77.50;;;;;;5031199;28;20483;-67
2022/07/18 04:15:45;;;;;;;7.32;4.93;;;22.20;76.50;;;;;;5031078;28;20025;-74
2022/07/18 04:18:11;;;;;;;11.02;4.63;;;22.50;75.30;;;;;;5031010;28;20426;-68
2022/07/18 04:20:38;;;;;;;6.65;3.85;;;22.60;73.90;;;;;;5030993;28;20857;-68
2022/07/18 04:23:07;;;;;;;11.38;4.75;;;23.10;73.00;;;;;;5031078;28;20053;-72
2022/07/18 04:25:38;;;;;;;9.27;4.88;;;22.90;72.40;;;;;;5030423;28;20018;-71
2022/07/18 04:28:05;;;;;;;9.27;4.23;;;23.30;71.80;;;;;;5030000;28;20048;-64
2022/07/18 04:30:32;;;;;;;8.95;4.45;;;24.00;71.10;;;;;;5026675;28;20324;-75
2022/07/18 04:33:00;;;;;;;15.82;5.30;;;24.60;69.50;;;;;;5029565;28;20037;-63
2022/07/18 04:35:26;;;;;;;12.32;5.50;;;24.90;68.70;;;;;;5030634;28;20465;-75
2022/07/18 04:37:52;;;;;;;12.77;5.32;;;25.30;68.00;;;;;;5030531;28;20033;-75
2022/07/18 04:40:20;;;;;;;16.25;6.35;;;26.30;80.40;;;;;;5030528;28;20029;-64
2022/07/18 04:42:46;;;;;;;18.17;6.60;;;26.50;79.80;;;;;;5030329;28;20026;-72
2022/07/18 04:45:13;;;;;;;15.82;6.63;;;26.90;64.30;;;;;;5034531;28;20021;-63
2022/07/18 04:47:39;;;;;;;13.38;6.70;;;27.40;63.90;;;;;;5042096;28;20047;-70
2022/07/18 04:50:06;;;;;;;17.08;6.40;;;26.90;63.00;;;;;;5051435;28;20111;-74
2022/07/18 04:52:42;;;;;;;17.60;6.50;;;27.20;62.70;;;;;;5052069;28;20102;-76
2022/07/18 04:55:09;;;;;;;16.15;6.32;;;26.70;62.80;;;;;;5054543;28;20541;-74
2022/07/18 04:57:36;;;;;;;16.25;6.43;;;27.30;62.80;;;;;;5055598;28;20446;-75
2022/07/18 05:00:08;;;;;;;15.05;5.85;;;27.80;62.20;;;;;;5055104;28;20048;-75
2022/07/18 05:02:34;;;;;;;13.02;6.10;;;27.20;61.80;;;;;;5040908;28;20077;-75
2022/07/18 05:04:59;;;;;;;22.20;5.05;;;26.90;62.80;;;;;;5034717;28;20404;-75
2022/07/18 05:07:25;;;;;;;10.13;4.18;;;25.50;63.60;;;;;;5035148;28;20045;-75
2022/07/18 05:09:51;;;;;;;11.15;4.60;;;24.20;65.70;;;;;;5035455;28;20049;-72
2022/07/18 05:12:18;;;;;;;11.38;4.70;;;23.70;67.60;;;;;;5055687;28;20029;-73
2022/07/18 05:14:44;;;;;;;10.40;4.75;;;22.80;70.10;;;;;;5055507;28;20382;-71
2022/07/18 05:17:10;;;;;;;13.68;5.10;;;22.30;72.40;;;;;;5055617;28;20036;-71
2022/07/18 05:19:36;;;;;;;12.45;5.00;;;21.70;74.80;;;;;;5054479;28;20017;-73
2022/07/18 05:22:02;;;;;;;9.30;3.70;;;21.40;76.10;;;;;;5053719;28;20025;-76
2022/07/18 05:24:28;;;;;;;10.30;4.13;;;21.30;77.00;;;;;;5055240;28;20459;-74
2022/07/18 05:26:53;;;;;;;10.02;4.25;;;20.80;78.80;;;;;;5055121;28;20045;-76
2022/07/18 05:29:19;;;;;;;13.25;4.32;;;21.00;81.30;;;;;;5055082;28;20306;-74
2022/07/18 05:31:45;;;;;;;15.38;4.53;;;20.70;80.90;;;;;;5055085;28;20533;-74
2022/07/18 05:34:11;;;;;;;14.48;4.93;;;20.60;81.70;;;;;;5054856;28;20064;-75
2022/07/18 05:36:37;;;;;;;9.02;4.50;;;20.70;83.00;;;;;;5054462;28;20498;-67
2022/07/18 05:39:03;;;;;;;9.68;4.35;;;21.20;82.70;;;;;;5054440;28;20459;-73
2022/07/18 05:41:29;;;;;;;8.65;4.25;;;21.30;82.40;;;;;;5055345;28;20032;-75
2022/07/18 05:43:55;;;;;;;8.38;4.18;;;21.50;80.50;;;;;;5054254;28;20482;-74
2022/07/18 05:46:21;;;;;;;9.95;4.25;;;21.40;81.00;;;;;;5054802;28;20059;-72
2022/07/18 05:48:46;;;;;;;11.75;4.32;;;21.60;80.50;;;;;;5054990;28;20370;-73
2022/07/18 05:51:12;;;;;;;9.30;3.85;;;21.70;79.90;;;;;;5054860;28;20024;-73
2022/07/18 05:53:38;;;;;;;9.45;4.78;;;21.90;79.30;;;;;;5054698;28;20025;-75
2022/07/18 05:56:05;;;;;;;11.68;4.85;;;22.10;78.70;;;;;;5054892;28;20080;-70
2022/07/18 05:58:30;;;;;;;10.02;4.32;;;22.20;79.20;;;;;;5054646;28;20028;-74
2022/07/18 06:00:56;;;;;;;7.18;3.65;;;22.30;79.00;;;;;;5054266;28;20021;-75
2022/07/18 06:03:22;;;;;;;8.98;3.75;;;22.30;77.00;;;;;;5054548;28;20049;-74
2022/07/18 06:05:48;;;;;;;15.25;4.85;;;22.50;77.30;;;;;;5054343;28;20037;-74
2022/07/18 06:08:13;;;;;;;9.35;4.43;;;22.50;76.30;;;;;;5054468;28;20029;-74
2022/07/18 06:10:39;;;;;;;8.93;3.53;;;22.50;76.70;;;;;;5054426;28;20082;-74
2022/07/18 06:13:05;;;;;;;10.18;3.75;;;22.60;75.30;;;;;;5053959;28;20025;-73
2022/07/18 06:15:31;;;;;;;7.55;3.40;;;22.80;76.60;;;;;;5054105;28;20032;-74
2022/07/18 06:17:57;;;;;;;8.55;3.88;;;22.70;73.70;;;;;;5054283;28;20024;-73
2022/07/18 06:20:23;;;;;;;6.78;3.65;;;22.60;76.10;;;;;;5054115;28;20017;-73
2022/07/18 06:22:49;;;;;;;13.32;4.40;;;23.10;75.20;;;;;;5054410;28;20021;-73
2022/07/18 06:25:14;;;;;;;8.90;4.47;;;23.00;73.70;;;;;;5035741;28;20411;-75
2022/07/18 06:27:40;;;;;;;8.93;3.60;;;23.30;72.50;;;;;;5054437;28;20032;-75
2022/07/18 06:30:09;;;;;;;9.45;3.22;;;23.50;71.30;;;;;;5053958;28;20429;-76
2022/07/18 06:32:35;;;;;;;8.98;3.35;;;23.60;71.30;;;;;;5054405;28;20498;-75
2022/07/18 06:35:01;;;;;;;7.28;3.15;;;24.00;71.70;;;;;;5054438;28;20017;-75
2022/07/18 06:37:27;;;;;;;10.50;3.22;;;24.00;70.00;;;;;;5053751;28;20044;-76
2022/07/18 06:39:53;;;;;;;4.82;2.78;;;24.20;71.30;;;;;;5054399;28;20029;-74
2022/07/18 06:42:18;;;;;;;7.50;3.25;;;24.10;68.10;;;;;;5054358;28;20021;-76
2022/07/18 06:44:45;;;;;;;4.20;2.78;;;24.20;69.30;;;;;;5053846;28;20025;-75
2022/07/18 06:47:10;;;;;;;7.70;3.42;;;24.40;69.80;;;;;;5053744;28;20043;-75
2022/07/18 06:49:36;;;;;;;10.10;3.50;;;24.60;69.10;;;;;;5054285;28;20021;-76
2022/07/18 06:52:02;;;;;;;8.05;3.00;;;24.60;66.20;;;;;;5053860;28;20356;-73
2022/07/18 06:54:28;;;;;;;8.30;3.17;;;24.70;68.40;;;;;;5053512;28;20028;-77
2022/07/18 06:56:54;;;;;;;4.93;2.85;;;24.80;65.10;;;;;;5053603;28;20029;-73
2022/07/18 06:59:21;;;;;;;7.75;3.55;;;24.60;66.00;;;;;;5053380;28;20065;-76
2022/07/18 07:01:47;;;;;;;7.20;3.78;;;24.70;65.80;;;;;;5051502;28;20099;-74
2022/07/18 07:04:12;;;;;;;10.00;4.03;;;24.80;66.90;;;;;;5050775;28;20480;-74
2022/07/18 07:06:38;;;;;;;5.75;3.22;;;24.60;66.10;;;;;;5051957;28;20391;-75
2022/07/18 07:09:05;;;;;;;11.80;3.67;;;24.70;64.90;;;;;;5052221;28;20080;-72
2022/07/18 07:11:31;;;;;;;8.20;3.20;;;25.20;64.80;;;;;;5052428;28;20025;-73
2022/07/18 07:13:57;;;;;;;8.50;3.22;;;25.20;64.50;;;;;;5052841;28;20367;-74
2022/07/18 07:16:23;;;;;;;6.57;3.03;;;25.50;62.90;;;;;;5051841;28;20226;-72
2022/07/18 07:18:49;;;;;;;9.57;2.90;;;25.40;62.30;;;;;;5052211;28;20032;-74
2022/07/18 07:21:15;;;;;;;5.22;2.55;;;25.60;61.60;;;;;;5052248;28;20017;-73
2022/07/18 07:23:41;;;;;;;5.40;2.70;;;25.90;62.20;;;;;;5052047;28;20025;-74
2022/07/18 07:26:08;;;;;;;6.50;2.75;;;26.30;62.50;;;;;;5052312;28;20021;-74
2022/07/18 07:28:34;;;;;;;10.32;2.90;;;26.60;63.20;;;;;;5051850;28;20044;-74
2022/07/18 07:31:00;;;;;;;8.68;2.85;;;27.00;61.60;;;;;;5052715;28;20037;-72
2022/07/18 07:33:26;;;;;;;6.53;2.47;;;27.00;60.50;;;;;;5053000;28;20040;-71
2022/07/18 07:35:51;;;;;;;4.95;1.77;;;27.00;61.20;;;;;;5052801;28;20459;-74
2022/07/18 07:38:18;;;;;;;5.40;2.35;;;26.90;57.90;;;;;;5052705;28;20138;-74
2022/07/18 07:40:48;;;;;;;4.63;2.33;;;27.00;57.50;;;;;;5053074;28;20021;-74
2022/07/18 07:43:15;;;;;;;5.88;2.35;;;27.00;57.60;;;;;;5053408;28;20332;-74
2022/07/18 07:45:41;;;;;;;5.05;2.67;;;27.30;59.20;;;;;;5052524;28;20025;-74
2022/07/18 07:48:07;;;;;;;6.32;2.30;;;27.60;59.40;;;;;;5034733;28;20036;-73
2022/07/18 07:50:34;;;;;;;6.60;2.30;;;27.70;58.80;;;;;;5052425;28;20021;-74
2022/07/18 07:53:00;;;;;;;4.28;2.00;;;27.60;57.40;;;;;;5052558;28;20082;-73
2022/07/18 07:55:26;;;;;;;3.92;1.85;;;28.10;56.50;;;;;;5052982;28;20021;-74
2022/07/18 07:57:52;;;;;;;8.45;2.38;;;28.00;55.30;;;;;;5052286;28;20100;-74
2022/07/18 08:00:18;;;;;;;11.43;2.35;;;28.20;56.10;;;;;;5052145;28;20032;-73
2022/07/18 08:03:02;;;;;;;5.53;2.45;;;28.30;54.60;;;;;;5052370;28;20053;-75
2022/07/18 08:05:30;;;;;;;10.45;2.53;;;28.60;54.70;;;;;;5034836;28;20032;-73
2022/07/18 08:07:57;;;;;;;3.80;1.90;;;28.60;54.20;;;;;;5052417;28;20032;-75
2022/07/18 08:10:22;;;;;;;7.78;2.20;;;28.20;53.90;;;;;;5052261;28;20113;-71
2022/07/18 08:12:48;;;;;;;4.85;2.00;;;28.30;52.60;;;;;;5052165;28;20104;-75
2022/07/18 08:15:14;;;;;;;4.03;1.50;;;28.10;54.30;;;;;;5052686;28;20041;-73
2022/07/18 08:17:40;;;;;;;4.65;1.60;;;28.50;49.40;;;;;;5052206;28;20033;-75
2022/07/18 08:20:07;;;;;;;3.53;1.60;;;28.60;49.70;;;;;;5051543;28;20501;-74
2022/07/18 08:22:34;;;;;;;2.58;1.60;;;;;;;;;;5052186;28;20391;-75
2022/07/18 08:25:01;;;;;;;3.53;1.73;;;29.10;60.20;;;;;;5052176;28;20029;-74
2022/07/18 08:27:27;;;;;;;7.18;1.90;;;29.00;52.70;;;;;;5051837;28;20029;-72
2022/07/18 08:29:52;;;;;;;3.88;1.90;;;29.00;50.80;;;;;;5055430;28;20047;-70
2022/07/18 08:32:18;;;;;;;6.93;2.30;;;28.90;50.80;;;;;;5038931;28;20078;-74
2022/07/18 08:34:44;;;;;;;4.53;1.98;;;29.00;51.20;;;;;;5056264;28;20036;-74
2022/07/18 08:37:10;;;;;;;5.13;1.60;;;;;;;;;;5056167;28;20029;-74
2022/07/18 08:39:36;;;;;;;4.88;1.88;;;29.80;56.00;;;;;;5056813;28;20029;-75
2022/07/18 08:42:02;;;;;;;10.30;1.75;;;29.00;50.90;;;;;;5056054;28;20021;-74
2022/07/18 08:44:28;;;;;;;1.30;1.00;;;29.30;50.20;;;;;;5055597;28;20052;-74
2022/07/18 08:46:57;;;;;;;1.48;1.08;;;29.40;48.30;;;;;;5055998;28;20071;-74
2022/07/18 08:49:24;;;;;;;4.70;1.00;;;29.00;46.50;;;;;;5056280;28;20115;-73
2022/07/18 08:51:51;;;;;;;1.02;0.93;;;28.70;46.10;;;;;;5056084;28;20021;-75
2022/07/18 08:54:16;;;;;;;4.25;1.17;;;28.90;45.60;;;;;;5055601;28;20112;-74
2022/07/18 08:56:42;;;;;;;3.15;0.95;;;29.40;46.70;;;;;;5055931;28;20104;-73
2022/07/18 08:59:08;;;;;;;2.35;0.93;;;29.00;46.50;;;;;;5054081;28;20025;-74
2022/07/18 09:01:34;;;;;;;2.72;1.08;;;28.50;44.20;;;;;;5054955;28;20235;-75
2022/07/18 09:04:16;;;;;;;2.17;0.90;;;28.70;45.10;;;;;;5054206;28;20036;-74
2022/07/18 09:06:50;;;;;;;3.28;1.50;;;28.70;44.50;;;;;;5054990;28;20037;-75
2022/07/18 09:09:17;;;;;;;0.95;0.75;;;28.70;45.90;;;;;;5055604;28;20032;-72
2022/07/18 09:11:58;;;;;;;3.47;1.33;;;28.70;44.80;;;;;;5055408;28;20064;-74
2022/07/18 09:14:35;;;;;;;1.05;0.70;;;28.80;46.00;;;;;;5055559;28;20025;-73
2022/07/18 09:17:01;;;;;;;3.20;1.02;;;28.70;46.00;;;;;;5056001;28;20094;-75
2022/07/18 09:19:27;;;;;;;1.88;0.70;;;28.70;45.50;;;;;;5055926;28;20459;-74
2022/07/18 09:21:53;;;;;;;1.58;0.85;;;28.90;45.70;;;;;;5055327;28;20036;-74
2022/07/18 09:24:19;;;;;;;2.70;1.20;;;28.70;45.50;;;;;;5055394;28;20024;-73
2022/07/18 09:26:46;;;;;;;6.20;1.25;;;28.90;45.60;;;;;;5053399;28;20072;-74
2022/07/18 09:29:16;;;;;;;0.88;0.55;;;29.00;46.10;;;;;;5054152;28;20013;-74
2022/07/18 09:31:52;;;;;;;3.25;0.98;;;28.90;46.00;;;;;;5055082;28;20036;-74
2022/07/18 09:34:38;;;;;;;2.42;0.88;;;29.00;47.70;;;;;;5054669;28;20472;-73
2022/07/18 09:37:05;;;;;;;2.60;1.25;;;28.80;47.60;;;;;;5054423;28;20025;-74
2022/07/18 09:39:31;;;;;;;3.40;1.20;;;28.90;46.70;;;;;;5053741;28;20117;-76
2022/07/18 09:42:13;;;;;;;3.45;1.23;;;28.70;46.80;;;;;;5053442;28;20052;-72
2022/07/18 09:44:39;;;;;;;2.33;1.20;;;28.70;46.90;;;;;;5053882;28;20036;-76
2022/07/18 09:47:06;;;;;;;2.03;0.98;;;28.80;47.20;;;;;;5054264;28;20029;-74
2022/07/18 09:49:33;;;;;;;2.72;1.13;;;28.90;47.00;;;;;;5053709;28;20025;-76
2022/07/18 09:52:05;;;;;;;1.50;0.80;;;29.00;46.60;;;;;;5053962;28;20032;-76
2022/07/18 09:54:37;;;;;;;;;;;28.80;46.80;;;;;;5054477;28;20033;-76
2022/07/18 09:57:03;;;;;;;2.35;1.02;;;28.90;47.20;;;;;;5054943;28;19955;-73
2022/07/18 09:59:29;;;;;;;3.63;1.40;;;28.80;47.10;;;;;;5054630;28;20024;-76
2022/07/18 10:01:56;;;;;;;3.85;1.27;;;28.80;47.40;;;;;;5054667;28;20067;-72
2022/07/18 10:04:22;;;;;;;1.88;1.35;;;28.80;47.20;;;;;;5053944;28;20036;-75
2022/07/18 10:06:48;;;;;;;6.40;1.85;;;29.00;47.00;;;;;;5054866;28;20037;-75
2022/07/18 10:09:14;;;;;;;2.78;1.40;;;29.00;46.50;;;;;;5054448;28;20027;-72
2022/07/18 10:11:41;;;;;;;1.95;1.27;;;29.20;47.30;;;;;;5054190;28;20033;-76
2022/07/18 10:14:08;;;;;;;3.15;1.17;;;29.00;45.80;;;;;;5054406;28;20017;-76
2022/07/18 10:16:35;;;;;;;9.35;1.52;;;29.30;46.40;;;;;;5054231;28;20029;-76
2022/07/18 10:19:00;;;;;;;1.85;1.15;;;28.90;45.40;;;;;;5054003;28;20028;-75
2022/07/18 10:21:29;;;;;;;4.43;1.42;;;29.10;46.70;;;;;;5054052;28;20033;-73
2022/07/18 10:23:59;;;;;;;4.95;1.83;;;29.00;46.60;;;;;;5053852;28;20021;-76
2022/07/18 10:26:27;;;;;;;4.78;1.50;;;29.30;47.60;;;;;;5054074;28;20040;-75
2022/07/18 10:28:55;;;;;;;1.90;1.23;;;29.10;46.10;;;;;;5054039;28;20029;-76
2022/07/18 10:31:28;;;;;;;7.80;1.20;;;29.40;46.50;;;;;;5054346;28;20112;-74
2022/07/18 10:34:09;;;;;;;6.93;1.40;;;30.10;51.90;;;;;;5053446;28;20033;-74
2022/07/18 10:36:39;;;;;;;9.27;1.38;;;30.00;56.40;;;;;;5052960;28;20036;-75
2022/07/18 10:39:23;;;;;;;1.20;1.00;;;30.10;57.80;;;;;;5049910;28;20057;-75
2022/07/18 10:41:49;;;;;;;2.40;1.00;;;;;;;;;;5052254;28;20032;-76
2022/07/18 10:44:34;;;;;;;3.78;1.38;;;30.10;57.20;;;;;;5052002;28;20678;-75
2022/07/18 10:47:03;;;;;;;3.65;1.55;;;30.00;57.60;;;;;;5052669;28;20051;-73
2022/07/18 10:49:47;;;;;;;2.97;1.52;;;29.70;58.50;;;;;;5053058;28;20025;-74
2022/07/18 10:52:28;;;;;;;4.80;1.48;;;30.00;58.50;;;;;;5050740;28;20040;-71
2022/07/18 10:55:06;;;;;;;3.10;1.40;;;;;;;;;;5052715;28;20025;-76
2022/07/18 10:57:37;;;;;;;3.90;1.33;;;30.10;45.40;;;;;;5053040;28;20025;-76
2022/07/18 11:00:15;;;;;;;2.10;1.23;;;30.30;55.80;;;;;;5052460;28;20070;-75
2022/07/18 11:02:42;;;;;;;2.28;1.00;;;29.90;56.30;;;;;;5051939;28;20131;-77
2022/07/18 11:05:22;;;;;;;2.53;1.17;;;30.20;56.50;;;;;;5053628;28;20028;-75
2022/07/18 11:07:58;;;;;;;3.13;1.37;;;;;;;;;;5053396;28;20044;-75
2022/07/18 11:10:46;;;;;;;2.85;1.50;;;;;;;;;;5053286;28;20025;-75
2022/07/18 11:13:21;;;;;;;3.85;1.75;;;;;;;;;;5053111;28;20064;-77
2022/07/18 11:16:06;;;;;;;3.72;2.40;;;;;;;;;;5053094;28;20025;-76
2022/07/18 11:18:55;;;;;;;4.57;2.70;;;30.10;62.80;;;;;;5052638;28;20242;-72
2022/07/18 11:21:33;;;;;;;3.25;1.80;;;30.20;62.80;;;;;;5043798;28;20115;-75
2022/07/18 11:24:01;;;;;;;3.67;2.30;;;30.10;62.20;;;;;;5053058;28;20028;-75
2022/07/18 11:26:28;;;;;;;5.82;2.08;;;30.00;60.80;;;;;;5052834;28;20028;-73
2022/07/18 11:29:05;;;;;;;4.30;1.63;;;30.10;60.60;;;;;;5052383;28;20033;-76
2022/07/18 11:31:42;;;;;;;5.35;1.60;;;30.00;65.50;;;;;;5052784;28;20361;-75
2022/07/18 11:34:08;;;;;;;8.25;1.45;;;29.90;65.00;;;;;;5052817;28;20103;-77
2022/07/18 11:36:34;;;;;;;1.05;0.85;;;30.00;64.60;;;;;;5052972;28;20113;-76
2022/07/18 11:39:02;;;;;;;1.88;1.05;;;30.10;63.80;;;;;;5052579;28;20044;-73
2022/07/18 11:41:28;;;;;;;3.55;1.58;;;30.20;65.00;;;;;;5053132;28;20025;-76
2022/07/18 11:43:55;;;;;;;3.38;1.55;;;30.10;63.60;;;;;;5052974;28;20033;-75
2022/07/18 11:46:23;;;;;;;3.95;1.55;;;30.20;64.40;;;;;;5052627;28;20040;-77
2022/07/18 11:48:58;;;;;;;1.75;1.30;;;29.90;63.40;;;;;;5052529;28;20464;-76
2022/07/18 11:51:24;;;;;;;3.65;1.58;;;30.10;64.60;;;;;;5052492;28;20029;-76
2022/07/18 11:53:52;;;;;;;4.03;1.30;;;30.20;64.50;;;;;;5052143;28;20029;-76
2022/07/18 11:56:20;;;;;;;3.35;1.40;;;30.30;57.70;;;;;;5052161;28;20510;-76
2022/07/18 11:58:48;;;;;;;6.32;1.65;;;30.10;57.10;;;;;;5052496;28;20024;-76
2022/07/18 12:01:15;;;;;;;1.65;1.27;;;29.80;63.60;;;;;;5052300;28;20471;-76
2022/07/18 12:03:47;;;;;;;1.50;1.33;;;30.10;65.00;;;;;;5051998;28;20063;-76
2022/07/18 12:06:17;;;;;;;2.47;1.70;;;30.00;62.90;;;;;;5052115;28;20032;-76
2022/07/18 12:08:51;;;;;;;4.05;1.75;;;30.10;62.70;;;;;;5052195;28;20541;-76
2022/07/18 12:11:24;;;;;;;4.35;1.33;;;30.30;63.70;;;;;;5051969;28;20061;-76
2022/07/18 12:14:07;;;;;;;3.33;1.08;;;29.60;62.40;;;;;;5048296;28;20507;-75
2022/07/18 12:16:38;;;;;;;1.52;1.20;;;29.80;57.90;;;;;;5052184;28;20463;-76
2022/07/18 12:19:08;;;;;;;4.30;1.50;;;;;;;;;;5052002;28;20017;-76
2022/07/18 12:21:53;;;;;;;3.70;1.45;;;29.40;44.80;;;;;;5034949;28;20444;-76
2022/07/18 12:24:25;;;;;;;3.63;1.77;;;29.80;46.20;;;;;;5051513;28;20502;-74
2022/07/18 12:27:18;;;;;;;3.90;2.47;;;30.10;60.70;;;;;;5051086;28;20037;-76
2022/07/18 12:30:03;;;;;;;5.63;3.13;;;30.20;46.20;;;;;;5051045;28;20029;-75
2022/07/18 12:32:33;;;;;;;5.97;3.20;;;30.40;67.00;;;;;;5049913;28;20491;-74
2022/07/18 12:35:05;;;;;;;5.53;3.10;;;;;;;;;;5051684;28;20062;-75
2022/07/18 12:37:31;;;;;;;5.25;3.15;;;30.50;47.10;;;;;;5051566;28;20033;-75
2022/07/18 12:40:01;;;;;;;2.55;1.58;;;;;;;;;;5052155;28;20017;-75
2022/07/18 12:42:29;;;;;;;1.50;1.13;;;;;;;;;;5052127;28;20025;-76
2022/07/18 12:44:55;;;;;;;5.45;1.08;;;29.60;43.00;;;;;;5051747;28;20086;-76
2022/07/18 12:47:20;;;;;;;2.92;1.23;;;29.60;44.30;;;;;;5052084;28;20041;-77
2022/07/18 12:49:46;;;;;;;33.83;3.95;;;29.60;44.00;;;;;;5051267;28;20489;-76
2022/07/18 12:52:12;;;;;;;1.95;1.10;;;29.90;46.60;;;;;;5051033;28;20029;-76
2022/07/18 12:54:38;;;;;;;1.58;1.05;;;29.90;43.70;;;;;;5050983;28;20021;-76
2022/07/18 12:57:04;;;;;;;2.22;1.13;;;30.10;44.20;;;;;;5051093;28;20361;-74